sensor_id;sensor_type;location;lat;lon;timestamp;pressure;altitude;pressure_sealevel;temperature;humidity
29385;BME280;16367;48.736;9.218;2023-11-21T00:01:32;-23397.06;;;7.23;100.00
29385;BME280;16367;48.736;9.218;2023-11-21T00:03:34;-23399.44;;;7.30;100.00
29385;BME280;16367;48.736;9.218;2023-11-21T00:05:35;-23398.97;;;7.29;100.00
29385;BME280;16367;48.736;9.218;2023-11-21T00:07:37;-23395.47;;;7.18;100.00
29385;BME280;16367;48.736;9.218;2023-11-21T00:09:38;-23396.41;;;7.21;100.00
29385;BME280;16367;48.736;9.218;2023-11-21T00:11:40;-23394.19;;;7.14;100.00
29385;BME280;16367;48.736;9.218;2023-11-21T00:13:41;-23393.22;;;7.11;100.00
29385;BME280;16367;48.736;9.218;2023-11-21T00:15:42;-23391.81;;;7.06;100.00
29385;BME280;16367;48.736;9.218;2023-11-21T00:17:44;-23388.78;;;6.97;100.00
29385;BME280;16367;48.736;9.218;2023-11-21T00:25:59;-9276.41;;;7.05;100.00
29385;BME280;16367;48.736;9.218;2023-11-21T00:28:01;-10241.06;;;7.09;100.00
29385;BME280;16367;48.736;9.218;2023-11-21T00:30:02;-10241.28;;;7.11;100.00
29385;BME280;16367;48.736;9.218;2023-11-21T00:32:06;-10561.84;;;7.03;100.00
29385;BME280;16367;48.736;9.218;2023-11-21T00:34:07;-11526.75;;;7.11;100.00
29385;BME280;16367;48.736;9.218;2023-11-21T00:36:09;-11847.66;;;7.08;100.00
29385;BME280;16367;48.736;9.218;2023-11-21T00:38:11;-9277.00;;;7.12;100.00
29385;BME280;16367;48.736;9.218;2023-11-21T00:40:12;-11848.38;;;7.14;100.00
29385;BME280;16367;48.736;9.218;2023-11-21T00:42:17;-15348.69;;;7.16;100.00
29385;BME280;16367;48.736;9.218;2023-11-21T00:48:32;-22224.56;;;7.26;100.00
29385;BME280;16367;48.736;9.218;2023-11-21T00:50:33;-23398.78;;;7.28;100.00
29385;BME280;16367;48.736;9.218;2023-11-21T00:52:35;-23397.38;;;7.24;100.00
29385;BME280;16367;48.736;9.218;2023-11-21T00:54:36;-23399.91;;;7.32;100.00
29385;BME280;16367;48.736;9.218;2023-11-21T00:56:38;-23397.69;;;7.25;100.00
29385;BME280;16367;48.736;9.218;2023-11-21T00:58:41;-23399.44;;;7.30;100.00
29385;BME280;16367;48.736;9.218;2023-11-21T01:00:43;-23396.56;;;7.21;100.00
29385;BME280;16367;48.736;9.218;2023-11-21T01:02:44;-23399.44;;;7.30;100.00
29385;BME280;16367;48.736;9.218;2023-11-21T01:04:47;-23396.41;;;7.21;100.00
29385;BME280;16367;48.736;9.218;2023-11-21T01:11:04;-23396.72;;;7.22;100.00
29385;BME280;16367;48.736;9.218;2023-11-21T01:13:08;-23397.69;;;7.25;100.00
29385;BME280;16367;48.736;9.218;2023-11-21T01:15:09;-23397.53;;;7.24;100.00
29385;BME280;16367;48.736;9.218;2023-11-21T01:17:12;-23395.78;;;7.19;100.00
29385;BME280;16367;48.736;9.218;2023-11-21T01:19:14;-23397.06;;;7.23;100.00
29385;BME280;16367;48.736;9.218;2023-11-21T01:21:15;-23397.06;;;7.23;100.00
29385;BME280;16367;48.736;9.218;2023-11-21T01:23:17;-23397.22;;;7.23;100.00
29385;BME280;16367;48.736;9.218;2023-11-21T01:25:18;-22297.13;;;7.17;100.00
29385;BME280;16367;48.736;9.218;2023-11-21T01:27:20;-17913.03;;;7.14;100.00
29385;BME280;16367;48.736;9.218;2023-11-21T01:37:10;-1875.09;;;7.24;100.00
29385;BME280;16367;48.736;9.218;2023-11-21T01:39:13;-2519.47;;;7.21;100.00
29385;BME280;16367;48.736;9.218;2023-11-21T01:41:16;-3163.56;;;7.26;100.00
29385;BME280;16367;48.736;9.218;2023-11-21T01:43:17;-3163.63;;;7.23;100.00
29385;BME280;16367;48.736;9.218;2023-11-21T01:45:19;-4451.66;;;7.23;100.00
29385;BME280;16367;48.736;9.218;2023-11-21T01:47:20;-4773.69;;;7.28;100.00
29385;BME280;16367;48.736;9.218;2023-11-21T01:49:22;-4773.75;;;7.33;100.00
29385;BME280;16367;48.736;9.218;2023-11-21T01:51:23;-7348.81;;;7.34;100.00
29385;BME280;16367;48.736;9.218;2023-11-21T01:53:26;-10887.00;;;7.37;100.00
29385;BME280;16367;48.736;9.218;2023-11-21T01:58:07;-18623.16;;;7.29;100.00
29385;BME280;16367;48.736;9.218;2023-11-21T02:00:09;-16399.78;;;7.30;100.00
29385;BME280;16367;48.736;9.218;2023-11-21T02:02:16;-16843.22;;;7.28;100.00
29385;BME280;16367;48.736;9.218;2023-11-21T02:04:18;-16857.53;;;7.25;100.00
29385;BME280;16367;48.736;9.218;2023-11-21T02:06:19;-20893.00;;;7.28;100.00
29385;BME280;16367;48.736;9.218;2023-11-21T02:08:22;-23401.19;;;7.36;100.00
29385;BME280;16367;48.736;9.218;2023-11-21T02:10:24;-23399.28;;;7.30;100.00
29385;BME280;16367;48.736;9.218;2023-11-21T02:12:25;-23398.66;;;7.28;100.00
29385;BME280;16367;48.736;9.218;2023-11-21T02:14:28;-23399.91;;;7.32;100.00
29385;BME280;16367;48.736;9.218;2023-11-21T02:20:44;-23400.88;;;7.35;100.00
29385;BME280;16367;48.736;9.218;2023-11-21T02:22:50;-23402.44;;;7.40;100.00
29385;BME280;16367;48.736;9.218;2023-11-21T02:24:52;-23399.59;;;7.31;100.00
29385;BME280;16367;48.736;9.218;2023-11-21T02:26:54;-23400.22;;;7.33;100.00
29385;BME280;16367;48.736;9.218;2023-11-21T02:28:55;-23400.88;;;7.35;100.00
29385;BME280;16367;48.736;9.218;2023-11-21T02:30:59;-23402.44;;;7.40;100.00
29385;BME280;16367;48.736;9.218;2023-11-21T02:33:00;-23402.13;;;7.39;100.00
29385;BME280;16367;48.736;9.218;2023-11-21T02:35:02;-23403.88;;;7.44;100.00
29385;BME280;16367;48.736;9.218;2023-11-21T02:37:03;-23401.34;;;7.36;100.00
29385;BME280;16367;48.736;9.218;2023-11-21T02:45:15;-23398.97;;;7.29;100.00
29385;BME280;16367;48.736;9.218;2023-11-21T02:47:17;-23400.06;;;7.32;100.00
29385;BME280;16367;48.736;9.218;2023-11-21T02:49:18;-23400.06;;;7.32;100.00
29385;BME280;16367;48.736;9.218;2023-11-21T02:51:20;-23398.00;;;7.26;100.00
29385;BME280;16367;48.736;9.218;2023-11-21T02:53:21;-23398.16;;;7.26;100.00
29385;BME280;16367;48.736;9.218;2023-11-21T02:55:23;-23396.25;;;7.20;100.00
29385;BME280;16367;48.736;9.218;2023-11-21T02:57:25;-23396.09;;;7.20;100.00
29385;BME280;16367;48.736;9.218;2023-11-21T02:59:27;-23395.47;;;7.18;100.00
29385;BME280;16367;48.736;9.218;2023-11-21T03:01:29;-23396.56;;;7.21;100.00
29385;BME280;16367;48.736;9.218;2023-11-21T03:05:43;-23397.69;;;7.25;100.00
29385;BME280;16367;48.736;9.218;2023-11-21T03:07:44;-23396.41;;;7.21;100.00
29385;BME280;16367;48.736;9.218;2023-11-21T03:09:46;-23393.88;;;7.13;100.00
29385;BME280;16367;48.736;9.218;2023-11-21T03:11:47;-23393.22;;;7.11;100.00
29385;BME280;16367;48.736;9.218;2023-11-21T03:13:49;-23394.19;;;7.14;100.00
29385;BME280;16367;48.736;9.218;2023-11-21T03:15:50;-23392.28;;;7.08;100.00
29385;BME280;16367;48.736;9.218;2023-11-21T03:17:52;-23394.66;;;7.15;100.00
29385;BME280;16367;48.736;9.218;2023-11-21T03:19:53;-23395.94;;;7.19;100.00
29385;BME280;16367;48.736;9.218;2023-11-21T03:21:56;-23393.22;;;7.11;100.00
29385;BME280;16367;48.736;9.218;2023-11-21T03:30:08;-23393.88;;;7.13;100.00
29385;BME280;16367;48.736;9.218;2023-11-21T03:32:10;-23392.28;;;7.08;100.00
29385;BME280;16367;48.736;9.218;2023-11-21T03:34:15;-23392.91;;;7.10;100.00
29385;BME280;16367;48.736;9.218;2023-11-21T03:36:17;-23394.19;;;7.14;100.00
29385;BME280;16367;48.736;9.218;2023-11-21T03:38:19;-23394.50;;;7.15;100.00
29385;BME280;16367;48.736;9.218;2023-11-21T03:40:20;-23394.19;;;7.14;100.00
29385;BME280;16367;48.736;9.218;2023-11-21T03:42:22;-23392.91;;;7.10;100.00
29385;BME280;16367;48.736;9.218;2023-11-21T03:44:24;-23393.22;;;7.11;100.00
29385;BME280;16367;48.736;9.218;2023-11-21T03:46:26;-23395.78;;;7.19;100.00
29385;BME280;16367;48.736;9.218;2023-11-21T03:51:48;-23393.88;;;7.13;100.00
29385;BME280;16367;48.736;9.218;2023-11-21T03:53:49;-23391.97;;;7.07;100.00
29385;BME280;16367;48.736;9.218;2023-11-21T03:55:50;-23391.66;;;7.06;100.00
29385;BME280;16367;48.736;9.218;2023-11-21T03:57:52;-23392.59;;;7.09;100.00
29385;BME280;16367;48.736;9.218;2023-11-21T03:59:53;-23390.69;;;7.03;100.00
29385;BME280;16367;48.736;9.218;2023-11-21T04:01:55;-23393.22;;;7.11;100.00
29385;BME280;16367;48.736;9.218;2023-11-21T04:03:57;-23391.50;;;7.05;100.00
29385;BME280;16367;48.736;9.218;2023-11-21T04:05:59;-23391.16;;;7.04;100.00
29385;BME280;16367;48.736;9.218;2023-11-21T04:08:02;-23392.28;;;7.08;100.00
29385;BME280;16367;48.736;9.218;2023-11-21T04:12:28;-23392.91;;;7.10;100.00
29385;BME280;16367;48.736;9.218;2023-11-21T04:14:30;-23392.59;;;7.09;100.00
29385;BME280;16367;48.736;9.218;2023-11-21T04:16:32;-23392.59;;;7.09;100.00
29385;BME280;16367;48.736;9.218;2023-11-21T04:18:35;-23391.34;;;7.05;100.00
29385;BME280;16367;48.736;9.218;2023-11-21T04:20:37;-23393.88;;;7.13;100.00
29385;BME280;16367;48.736;9.218;2023-11-21T04:22:38;-23395.16;;;7.17;100.00
29385;BME280;16367;48.736;9.218;2023-11-21T04:24:42;-23394.19;;;7.14;100.00
29385;BME280;16367;48.736;9.218;2023-11-21T04:26:43;-23392.91;;;7.10;100.00
29385;BME280;16367;48.736;9.218;2023-11-21T04:28:45;-23393.56;;;7.12;100.00
29385;BME280;16367;48.736;9.218;2023-11-21T04:34:56;-23396.41;;;7.21;100.00
29385;BME280;16367;48.736;9.218;2023-11-21T04:36:57;-23392.75;;;7.09;100.00
29385;BME280;16367;48.736;9.218;2023-11-21T04:38:58;-23394.66;;;7.15;100.00
29385;BME280;16367;48.736;9.218;2023-11-21T04:41:00;-23391.50;;;7.05;100.00
29385;BME280;16367;48.736;9.218;2023-11-21T04:43:04;-23394.50;;;7.15;100.00
29385;BME280;16367;48.736;9.218;2023-11-21T04:45:07;-23392.59;;;7.09;100.00
29385;BME280;16367;48.736;9.218;2023-11-21T04:47:10;-23394.34;;;7.14;100.00
29385;BME280;16367;48.736;9.218;2023-11-21T04:49:11;-23392.28;;;7.08;100.00
29385;BME280;16367;48.736;9.218;2023-11-21T04:51:13;-23393.22;;;7.11;100.00
29385;BME280;16367;48.736;9.218;2023-11-21T04:53:15;-23392.13;;;7.07;100.00
29385;BME280;16367;48.736;9.218;2023-11-21T04:58:07;-23392.91;;;7.10;100.00
29385;BME280;16367;48.736;9.218;2023-11-21T05:00:10;-23390.38;;;7.02;100.00
29385;BME280;16367;48.736;9.218;2023-11-21T05:02:12;-23391.00;;;7.04;100.00
29385;BME280;16367;48.736;9.218;2023-11-21T05:04:33;-23389.91;;;7.00;100.00
29385;BME280;16367;48.736;9.218;2023-11-21T05:06:35;-23388.78;;;6.97;100.00
29385;BME280;16367;48.736;9.218;2023-11-21T05:08:36;-23389.75;;;7.00;100.00
29385;BME280;16367;48.736;9.218;2023-11-21T05:10:38;-23389.44;;;6.99;100.00
29385;BME280;16367;48.736;9.218;2023-11-21T05:12:40;-23391.34;;;7.05;100.00
29385;BME280;16367;48.736;9.218;2023-11-21T05:14:42;-23389.75;;;7.00;100.00
29385;BME280;16367;48.736;9.218;2023-11-21T05:20:57;-23389.09;;;6.98;100.00
29385;BME280;16367;48.736;9.218;2023-11-21T05:22:58;-23391.00;;;7.04;100.00
29385;BME280;16367;48.736;9.218;2023-11-21T05:25:00;-23389.44;;;6.99;100.00
29385;BME280;16367;48.736;9.218;2023-11-21T05:27:01;-23390.06;;;7.01;100.00
29385;BME280;16367;48.736;9.218;2023-11-21T05:29:03;-23390.69;;;7.03;100.00
29385;BME280;16367;48.736;9.218;2023-11-21T05:31:04;-23390.69;;;7.03;100.00
29385;BME280;16367;48.736;9.218;2023-11-21T05:33:16;-23390.38;;;7.02;100.00
29385;BME280;16367;48.736;9.218;2023-11-21T05:35:18;-23388.78;;;6.97;100.00
29385;BME280;16367;48.736;9.218;2023-11-21T05:37:20;-23388.47;;;6.96;100.00
29385;BME280;16367;48.736;9.218;2023-11-21T05:42:22;-23390.38;;;7.02;100.00
29385;BME280;16367;48.736;9.218;2023-11-21T05:44:24;-23388.94;;;6.97;100.00
29385;BME280;16367;48.736;9.218;2023-11-21T05:46:25;-23388.78;;;6.97;100.00
29385;BME280;16367;48.736;9.218;2023-11-21T05:48:27;-23389.75;;;7.00;100.00
29385;BME280;16367;48.736;9.218;2023-11-21T05:50:29;-23388.47;;;6.96;100.00
29385;BME280;16367;48.736;9.218;2023-11-21T05:52:31;-23387.53;;;6.93;100.00
29385;BME280;16367;48.736;9.218;2023-11-21T05:54:33;-23388.47;;;6.96;100.00
29385;BME280;16367;48.736;9.218;2023-11-21T05:56:34;-23384.34;;;6.83;100.00
29385;BME280;16367;48.736;9.218;2023-11-21T05:58:37;-23385.28;;;6.86;100.00
29385;BME280;16367;48.736;9.218;2023-11-21T06:04:52;-23385.94;;;6.88;100.00
29385;BME280;16367;48.736;9.218;2023-11-21T06:06:53;-23385.59;;;6.87;100.00
29385;BME280;16367;48.736;9.218;2023-11-21T06:08:54;-23385.94;;;6.88;100.00
29385;BME280;16367;48.736;9.218;2023-11-21T06:10:57;-23387.03;;;6.91;100.00
29385;BME280;16367;48.736;9.218;2023-11-21T06:12:58;-23384.03;;;6.82;100.00
29385;BME280;16367;48.736;9.218;2023-11-21T06:15:05;-23383.06;;;6.78;100.00
29385;BME280;16367;48.736;9.218;2023-11-21T06:17:09;-23382.91;;;6.78;100.00
29385;BME280;16367;48.736;9.218;2023-11-21T06:19:11;-23383.53;;;6.80;100.00
29385;BME280;16367;48.736;9.218;2023-11-21T06:21:13;-22829.69;;;6.74;100.00
29385;BME280;16367;48.736;9.218;2023-11-21T06:27:31;-10239.72;;;6.96;100.00
29385;BME280;16367;48.736;9.218;2023-11-21T06:29:32;-14861.44;;;6.84;100.00
29385;BME280;16367;48.736;9.218;2023-11-21T06:31:33;-15024.38;;;6.84;100.00
29385;BME280;16367;48.736;9.218;2023-11-21T06:33:35;-11523.13;;;6.82;100.00
29385;BME280;16367;48.736;9.218;2023-11-21T06:35:36;-8310.22;;;6.81;100.00
29385;BME280;16367;48.736;9.218;2023-11-21T06:37:38;-5416.53;;;6.87;100.00
29385;BME280;16367;48.736;9.218;2023-11-21T06:39:39;-1876.16;;;6.92;100.00
29385;BME280;16367;48.736;9.218;2023-11-21T06:41:40;-4773.16;;;6.91;100.00
29385;BME280;16367;48.736;9.218;2023-11-21T06:43:42;-5416.63;;;6.91;100.00
29385;BME280;16367;48.736;9.218;2023-11-21T06:50:14;-10239.66;;;6.95;100.00
29385;BME280;16367;48.736;9.218;2023-11-21T06:52:16;-12166.41;;;6.90;100.00
29385;BME280;16367;48.736;9.218;2023-11-21T06:54:18;-10560.50;;;6.91;100.00
29385;BME280;16367;48.736;9.218;2023-11-21T06:56:19;-8953.69;;;6.90;100.00
29385;BME280;16367;48.736;9.218;2023-11-21T06:58:21;-8633.03;;;7.00;100.00
29385;BME280;16367;48.736;9.218;2023-11-21T07:00:22;-9918.81;;;7.00;100.00
29385;BME280;16367;48.736;9.218;2023-11-21T07:02:24;-13431.75;;;6.97;100.00
29385;BME280;16367;48.736;9.218;2023-11-21T07:04:25;-11846.88;;;7.02;100.00
29385;BME280;16367;48.736;9.218;2023-11-21T07:06:27;-9276.78;;;7.09;100.00
29385;BME280;16367;48.736;9.218;2023-11-21T07:13:11;-17593.63;;;7.09;100.00
29385;BME280;16367;48.736;9.218;2023-11-21T07:15:13;-21102.13;;;7.15;100.00
29385;BME280;16367;48.736;9.218;2023-11-21T07:17:14;-21527.28;;;7.22;100.00
29385;BME280;16367;48.736;9.218;2023-11-21T07:19:18;-23038.03;;;7.25;100.00
29385;BME280;16367;48.736;9.218;2023-11-21T07:21:20;-23399.28;;;7.30;100.00
29385;BME280;16367;48.736;9.218;2023-11-21T07:23:22;-23396.09;;;7.20;100.00
29385;BME280;16367;48.736;9.218;2023-11-21T07:25:23;-23398.97;;;7.29;100.00
29385;BME280;16367;48.736;9.218;2023-11-21T07:27:25;-23397.84;;;7.25;100.00
29385;BME280;16367;48.736;9.218;2023-11-21T07:29:27;-23402.78;;;7.41;100.00
29385;BME280;16367;48.736;9.218;2023-11-21T07:34:08;-23398.00;;;7.26;100.00
29385;BME280;16367;48.736;9.218;2023-11-21T07:36:09;-23401.19;;;7.36;100.00
29385;BME280;16367;48.736;9.218;2023-11-21T07:38:11;-23404.34;;;7.46;100.00
29385;BME280;16367;48.736;9.218;2023-11-21T07:40:12;-23398.97;;;7.29;100.00
29385;BME280;16367;48.736;9.218;2023-11-21T07:42:14;-23401.34;;;7.36;100.00
29385;BME280;16367;48.736;9.218;2023-11-21T07:44:16;-23402.44;;;7.40;100.00
29385;BME280;16367;48.736;9.218;2023-11-21T07:46:18;-23402.44;;;7.40;100.00
29385;BME280;16367;48.736;9.218;2023-11-21T07:48:20;-23399.91;;;7.32;100.00
29385;BME280;16367;48.736;9.218;2023-11-21T07:50:23;-23402.78;;;7.41;100.00
29385;BME280;16367;48.736;9.218;2023-11-21T07:57:06;-23396.72;;;7.22;100.00
29385;BME280;16367;48.736;9.218;2023-11-21T07:59:07;-23400.22;;;7.33;100.00
29385;BME280;16367;48.736;9.218;2023-11-21T08:01:09;-23398.66;;;7.28;100.00
29385;BME280;16367;48.736;9.218;2023-11-21T08:03:10;-19428.34;;;7.32;100.00
29385;BME280;16367;48.736;9.218;2023-11-21T08:05:12;-11527.63;;;7.18;100.00
29385;BME280;16367;48.736;9.218;2023-11-21T08:07:25;-908.16;;;7.30;100.00
29385;BME280;16367;48.736;9.218;2023-11-21T08:09:27;703.38;;;7.26;100.00
29385;BME280;16367;48.736;9.218;2023-11-21T08:11:28;4573.91;;;7.24;100.00
29385;BME280;16367;48.736;9.218;2023-11-21T08:16:23;10389.69;;;7.35;100.00
29385;BME280;16367;48.736;9.218;2023-11-21T08:18:25;12330.28;;;7.37;100.00
29385;BME280;16367;48.736;9.218;2023-11-21T08:20:26;10714.63;;;7.42;100.00
29385;BME280;16367;48.736;9.218;2023-11-21T08:22:29;10067.47;;;7.39;100.00
29385;BME280;16367;48.736;9.218;2023-11-21T08:24:30;11363.34;;;7.50;100.00
29385;BME280;16367;48.736;9.218;2023-11-21T08:26:32;7161.31;;;7.51;100.00
29385;BME280;16367;48.736;9.218;2023-11-21T08:28:33;2639.53;;;7.38;100.00
29385;BME280;16367;48.736;9.218;2023-11-21T08:30:35;-262.47;;;7.48;100.00
29385;BME280;16367;48.736;9.218;2023-11-21T08:32:37;-4773.88;;;7.41;100.00
29385;BME280;16367;48.736;9.218;2023-11-21T08:38:19;-3163.38;;;7.42;100.00
29385;BME280;16367;48.736;9.218;2023-11-21T08:40:21;-4773.88;;;7.42;100.00
29385;BME280;16367;48.736;9.218;2023-11-21T08:42:22;-9279.03;;;7.35;100.00
29385;BME280;16367;48.736;9.218;2023-11-21T08:44:24;-8636.59;;;7.46;100.00
29385;BME280;16367;48.736;9.218;2023-11-21T08:46:25;-15860.72;;;7.57;100.00
29385;BME280;16367;48.736;9.218;2023-11-21T08:48:27;-23408.50;;;7.59;100.00
29385;BME280;16367;48.736;9.218;2023-11-21T08:50:30;-23408.97;;;7.61;100.00
29385;BME280;16367;48.736;9.218;2023-11-21T08:52:31;-23409.75;;;7.63;100.00
29385;BME280;16367;48.736;9.218;2023-11-21T08:54:33;-23416.09;;;7.83;100.00
29385;BME280;16367;48.736;9.218;2023-11-21T09:04:01;-23425.63;;;8.13;100.00
29385;BME280;16367;48.736;9.218;2023-11-21T09:06:03;-23427.84;;;8.20;100.00
29385;BME280;16367;48.736;9.218;2023-11-21T09:08:05;-23424.84;;;8.11;100.00
29385;BME280;16367;48.736;9.218;2023-11-21T09:10:08;-23427.53;;;8.19;100.00
29385;BME280;16367;48.736;9.218;2023-11-21T09:12:10;-23465.31;;;9.39;100.00
29385;BME280;16367;48.736;9.218;2023-11-21T09:14:13;-23460.88;;;9.25;100.00
29385;BME280;16367;48.736;9.218;2023-11-21T09:16:17;-23452.94;;;9.00;100.00
29385;BME280;16367;48.736;9.218;2023-11-21T09:18:18;-23458.66;;;9.18;100.00
29385;BME280;16367;48.736;9.218;2023-11-21T09:20:20;-23469.75;;;9.53;100.00
29385;BME280;16367;48.736;9.218;2023-11-21T09:26:36;-23470.22;;;9.55;100.00
29385;BME280;16367;48.736;9.218;2023-11-21T09:28:38;-23489.91;;;10.17;100.00
29385;BME280;16367;48.736;9.218;2023-11-21T09:30:40;-23512.84;;;10.90;100.00
29385;BME280;16367;48.736;9.218;2023-11-21T09:32:41;-23509.38;;;10.79;100.00
29385;BME280;16367;48.736;9.218;2023-11-21T09:34:46;-23497.97;;;10.43;100.00
29385;BME280;16367;48.736;9.218;2023-11-21T09:36:47;-23497.81;;;10.42;100.00
29385;BME280;16367;48.736;9.218;2023-11-21T09:38:49;-23477.84;;;9.79;100.00
29385;BME280;16367;48.736;9.218;2023-11-21T09:40:51;-23472.28;;;9.61;100.00
29385;BME280;16367;48.736;9.218;2023-11-21T09:42:56;-23470.38;;;9.55;100.00
29385;BME280;16367;48.736;9.218;2023-11-21T09:51:08;-23476.41;;;9.74;100.00
29385;BME280;16367;48.736;9.218;2023-11-21T09:53:13;-23457.53;;;9.15;100.00
29385;BME280;16367;48.736;9.218;2023-11-21T09:55:18;-23459.59;;;9.21;100.00
29385;BME280;16367;48.736;9.218;2023-11-21T09:57:23;-23462.13;;;9.29;100.00
29385;BME280;16367;48.736;9.218;2023-11-21T09:59:25;-23462.78;;;9.31;100.00
29385;BME280;16367;48.736;9.218;2023-11-21T10:01:31;-23459.28;;;9.20;100.00
29385;BME280;16367;48.736;9.218;2023-11-21T10:03:35;-23450.72;;;8.93;100.00
29385;BME280;16367;48.736;9.218;2023-11-21T10:05:38;-23451.34;;;8.95;100.00
29385;BME280;16367;48.736;9.218;2023-11-21T10:07:40;-23444.06;;;8.72;100.00
29385;BME280;16367;48.736;9.218;2023-11-21T10:13:55;-23446.44;;;8.79;100.00
29385;BME280;16367;48.736;9.218;2023-11-21T10:15:58;-23445.97;;;8.78;100.00
29385;BME280;16367;48.736;9.218;2023-11-21T10:18:02;-23446.44;;;8.79;100.00
29385;BME280;16367;48.736;9.218;2023-11-21T10:20:05;-23447.06;;;8.81;100.00
29385;BME280;16367;48.736;9.218;2023-11-21T10:22:13;-23446.91;;;8.81;100.00
29385;BME280;16367;48.736;9.218;2023-11-21T10:24:16;-23445.00;;;8.75;100.00
29385;BME280;16367;48.736;9.218;2023-11-21T10:26:19;-23451.03;;;8.94;100.00
29385;BME280;16367;48.736;9.218;2023-11-21T10:28:35;-23451.34;;;8.95;100.00
29385;BME280;16367;48.736;9.218;2023-11-21T10:30:39;-23445.81;;;8.77;100.00
29385;BME280;16367;48.736;9.218;2023-11-21T10:37:12;-23446.13;;;8.78;100.00
29385;BME280;16367;48.736;9.218;2023-11-21T10:39:14;-23441.03;;;8.62;100.00
29385;BME280;16367;48.736;9.218;2023-11-21T10:41:18;-23445.66;;;8.77;100.00
29385;BME280;16367;48.736;9.218;2023-11-21T10:43:25;-23446.59;;;8.80;100.00
29385;BME280;16367;48.736;9.218;2023-11-21T10:45:26;-23448.50;;;8.86;100.00
29385;BME280;16367;48.736;9.218;2023-11-21T10:47:31;-23445.16;;;8.75;100.00
29385;BME280;16367;48.736;9.218;2023-11-21T10:49:32;-23445.97;;;8.78;100.00
29385;BME280;16367;48.736;9.218;2023-11-21T10:51:34;-23444.06;;;8.72;100.00
29385;BME280;16367;48.736;9.218;2023-11-21T10:53:39;-23443.25;;;8.69;100.00
29385;BME280;16367;48.736;9.218;2023-11-21T10:59:56;-23439.59;;;8.58;100.00
29385;BME280;16367;48.736;9.218;2023-11-21T11:01:58;-23444.06;;;8.72;100.00
29385;BME280;16367;48.736;9.218;2023-11-21T11:04:05;-23443.09;;;8.69;100.00
29385;BME280;16367;48.736;9.218;2023-11-21T11:06:07;-23437.06;;;8.50;100.00
29385;BME280;16367;48.736;9.218;2023-11-21T11:08:12;-23440.25;;;8.60;100.00
29385;BME280;16367;48.736;9.218;2023-11-21T11:10:22;-23439.28;;;8.57;100.00
29385;BME280;16367;48.736;9.218;2023-11-21T11:12:27;-23437.06;;;8.50;100.00
29385;BME280;16367;48.736;9.218;2023-11-21T11:14:29;-23441.53;;;8.64;100.00
29385;BME280;16367;48.736;9.218;2023-11-21T11:16:32;-23440.88;;;8.62;100.00
29385;BME280;16367;48.736;9.218;2023-11-21T11:23:15;-23426.28;;;8.15;100.00
29385;BME280;16367;48.736;9.218;2023-11-21T11:25:38;-23431.34;;;8.32;100.00
29385;BME280;16367;48.736;9.218;2023-11-21T11:27:53;-23435.47;;;8.45;100.00
29385;BME280;16367;48.736;9.218;2023-11-21T11:30:02;-23436.75;;;8.49;100.00
29385;BME280;16367;48.736;9.218;2023-11-21T11:32:21;-23442.78;;;8.68;100.00
29385;BME280;16367;48.736;9.218;2023-11-21T11:34:32;-23446.28;;;8.79;100.00
29385;BME280;16367;48.736;9.218;2023-11-21T11:36:36;-23454.84;;;9.06;100.00
29385;BME280;16367;48.736;9.218;2023-11-21T11:38:39;-23453.25;;;9.01;100.00
29385;BME280;16367;48.736;9.218;2023-11-21T11:40:47;-23458.81;;;9.19;100.00
29385;BME280;16367;48.736;9.218;2023-11-21T11:47:14;-23448.19;;;8.85;100.00
29385;BME280;16367;48.736;9.218;2023-11-21T11:49:27;-23455.16;;;9.07;100.00
29385;BME280;16367;48.736;9.218;2023-11-21T11:51:29;-23452.63;;;8.99;100.00
29385;BME280;16367;48.736;9.218;2023-11-21T11:53:36;-23453.72;;;9.02;100.00
29385;BME280;16367;48.736;9.218;2023-11-21T11:55:38;-23453.91;;;9.03;100.00
29385;BME280;16367;48.736;9.218;2023-11-21T11:57:41;-23450.25;;;8.91;100.00
29385;BME280;16367;48.736;9.218;2023-11-21T12:00:07;-23449.94;;;8.90;100.00
29385;BME280;16367;48.736;9.218;2023-11-21T12:02:10;-23453.72;;;9.02;100.00
29385;BME280;16367;48.736;9.218;2023-11-21T12:07:42;-23448.81;;;8.87;100.00
29385;BME280;16367;48.736;9.218;2023-11-21T12:09:44;-23440.72;;;8.61;100.00
29385;BME280;16367;48.736;9.218;2023-11-21T12:11:48;-23446.44;;;8.79;100.00
29385;BME280;16367;48.736;9.218;2023-11-21T12:13:49;-23439.59;;;8.58;100.00
29385;BME280;16367;48.736;9.218;2023-11-21T12:15:53;-23442.63;;;8.67;100.00
29385;BME280;16367;48.736;9.218;2023-11-21T12:17:56;-23442.94;;;8.68;100.00
29385;BME280;16367;48.736;9.218;2023-11-21T12:20:02;-23440.56;;;8.61;100.00
29385;BME280;16367;48.736;9.218;2023-11-21T12:22:04;-23448.03;;;8.84;100.00
29385;BME280;16367;48.736;9.218;2023-11-21T12:24:07;-23438.97;;;8.56;100.00
29385;BME280;16367;48.736;9.218;2023-11-21T12:30:25;-23444.84;;;8.74;100.00
29385;BME280;16367;48.736;9.218;2023-11-21T12:32:28;-23445.00;;;8.75;100.00
29385;BME280;16367;48.736;9.218;2023-11-21T12:34:30;-23441.84;;;8.65;100.00
29385;BME280;16367;48.736;9.218;2023-11-21T12:36:31;-23446.28;;;8.79;100.00
29385;BME280;16367;48.736;9.218;2023-11-21T12:38:34;-23440.09;;;8.59;100.00
29385;BME280;16367;48.736;9.218;2023-11-21T12:40:36;-23439.47;;;8.57;100.00
29385;BME280;16367;48.736;9.218;2023-11-21T12:42:39;-23435.16;;;8.44;100.00
29385;BME280;16367;48.736;9.218;2023-11-21T12:44:40;-23434.22;;;8.41;100.00
29385;BME280;16367;48.736;9.218;2023-11-21T12:46:43;-23438.66;;;8.55;100.00
29385;BME280;16367;48.736;9.218;2023-11-21T12:53:21;-23434.53;;;8.42;100.00
29385;BME280;16367;48.736;9.218;2023-11-21T12:55:23;-23435.81;;;8.46;100.00
29385;BME280;16367;48.736;9.218;2023-11-21T12:57:25;-23440.56;;;8.61;100.00
29385;BME280;16367;48.736;9.218;2023-11-21T12:59:28;-23441.53;;;8.64;100.00
29385;BME280;16367;48.736;9.218;2023-11-21T13:01:31;-23437.06;;;8.50;100.00
29385;BME280;16367;48.736;9.218;2023-11-21T13:03:33;-23438.34;;;8.54;100.00
29385;BME280;16367;48.736;9.218;2023-11-21T13:05:38;-23441.34;;;8.63;100.00
29385;BME280;16367;48.736;9.218;2023-11-21T13:07:41;-23434.22;;;8.41;100.00
29385;BME280;16367;48.736;9.218;2023-11-21T13:09:52;-23434.06;;;8.40;100.00